createdAt,value
2017-12-12T00:00:49.108Z,29.42
2017-12-12T00:03:18.076Z,30.35
2017-12-12T00:05:45.536Z,31.40
2017-12-12T00:08:13.017Z,26.08
2017-12-12T00:10:40.473Z,25.17
2017-12-12T00:13:07.928Z,25.02
2017-12-12T00:15:35.392Z,26.90
2017-12-12T00:18:02.944Z,19.87
2017-12-12T00:20:30.490Z,24.10
2017-12-12T00:22:57.985Z,20.70
2017-12-12T00:25:25.477Z,21.20
2017-12-12T00:27:53.022Z,20.55
2017-12-12T00:30:20.476Z,21.05
2017-12-12T00:32:48.702Z,23.00
2017-12-12T00:35:16.173Z,22.27
2017-12-12T00:37:44.394Z,25.90
2017-12-12T00:40:11.969Z,21.87
2017-12-12T00:42:40.235Z,23.80
2017-12-12T00:45:08.484Z,20.92
2017-12-12T00:47:36.029Z,24.35
2017-12-12T00:50:04.261Z,20.25
2017-12-12T00:52:31.756Z,25.37
2017-12-12T00:54:59.276Z,23.95
2017-12-12T00:57:26.740Z,21.02
2017-12-12T00:59:54.264Z,27.48
2017-12-12T01:02:22.520Z,20.60
2017-12-12T01:04:50.789Z,23.70
2017-12-12T01:07:19.040Z,28.87
2017-12-12T01:09:47.256Z,27.75
2017-12-12T01:12:14.726Z,27.48
2017-12-12T01:14:42.180Z,33.28
2017-12-12T01:17:09.644Z,27.48
2017-12-12T01:19:37.989Z,31.10
2017-12-12T01:22:06.221Z,34.53
2017-12-12T01:24:34.096Z,27.80
2017-12-12T01:27:01.561Z,31.37
2017-12-12T01:29:29.093Z,26.98
2017-12-12T01:31:57.346Z,36.35
2017-12-12T01:34:24.889Z,29.73
2017-12-12T01:36:53.153Z,36.92
2017-12-12T01:39:21.377Z,28.55
2017-12-12T01:41:48.849Z,32.70
2017-12-12T01:44:17.077Z,30.35
2017-12-12T01:46:44.548Z,30.75
2017-12-12T01:49:12.008Z,25.62
2017-12-12T01:51:40.249Z,27.48
2017-12-12T01:54:08.485Z,25.95
2017-12-12T01:56:35.950Z,21.73
2017-12-12T01:59:03.488Z,24.75
2017-12-12T02:01:31.033Z,27.10
2017-12-12T02:03:58.505Z,25.80
2017-12-12T02:06:26.022Z,26.60
2017-12-12T02:08:53.490Z,26.37
2017-12-12T02:11:21.008Z,25.08
2017-12-12T02:13:48.463Z,25.40
2017-12-12T02:16:16.716Z,28.67
2017-12-12T02:18:44.944Z,28.25
2017-12-12T02:21:12.421Z,22.95
2017-12-12T02:23:40.652Z,23.50
2017-12-12T02:26:08.108Z,22.33
2017-12-12T02:28:35.652Z,24.45
2017-12-12T02:31:03.108Z,31.33
2017-12-12T02:33:31.334Z,28.05
2017-12-12T02:35:58.805Z,26.33
2017-12-12T02:38:27.029Z,22.37
2017-12-12T02:40:54.497Z,22.25
2017-12-12T02:43:22.039Z,22.98
2017-12-12T02:45:49.569Z,19.23
2017-12-12T02:48:17.033Z,24.02
2017-12-12T02:50:45.283Z,23.62
2017-12-12T02:53:12.838Z,21.20
2017-12-12T02:55:41.090Z,20.85
2017-12-12T02:58:08.640Z,21.30
2017-12-12T03:00:36.864Z,19.15
2017-12-12T03:03:04.346Z,16.75
2017-12-12T03:05:32.614Z,20.15
2017-12-12T03:08:00.824Z,15.43
2017-12-12T03:10:28.410Z,17.12
2017-12-12T03:12:56.704Z,18.08
2017-12-12T03:15:24.205Z,20.23
2017-12-12T03:17:51.725Z,18.30
2017-12-12T03:20:20.732Z,17.92
2017-12-12T03:22:48.968Z,15.00
2017-12-12T03:25:16.439Z,15.38
2017-12-12T03:27:44.668Z,15.05
2017-12-12T03:30:12.120Z,14.75
2017-12-12T03:32:40.389Z,15.15
2017-12-12T03:35:08.651Z,16.23
2017-12-12T03:37:36.121Z,16.42
2017-12-12T03:40:03.573Z,14.63
2017-12-12T03:42:31.032Z,18.37
2017-12-12T03:44:58.544Z,17.98
2017-12-12T03:47:25.996Z,14.02
2017-12-12T03:49:53.464Z,17.58
2017-12-12T03:52:21.036Z,19.52
2017-12-12T03:54:48.504Z,19.92
2017-12-12T03:57:16.721Z,17.98
2017-12-12T03:59:44.285Z,15.65
2017-12-12T04:02:12.504Z,19.50
2017-12-12T04:04:39.960Z,17.45
2017-12-12T04:07:07.412Z,23.58
2017-12-12T04:09:34.868Z,23.65
2017-12-12T04:12:02.415Z,23.67
2017-12-12T04:14:29.956Z,21.05
2017-12-12T04:16:57.425Z,18.85
2017-12-12T04:19:24.941Z,19.75
2017-12-12T04:21:52.404Z,20.92
2017-12-12T04:24:19.928Z,21.30
2017-12-12T04:26:48.189Z,20.27
2017-12-12T04:29:16.454Z,19.70
2017-12-12T04:31:44.708Z,19.27
2017-12-12T04:34:12.967Z,24.02
2017-12-12T04:36:41.354Z,21.12
2017-12-12T04:39:08.868Z,15.05
2017-12-12T04:41:36.417Z,23.02
2017-12-12T04:44:04.876Z,17.00
2017-12-12T04:46:32.420Z,16.75
2017-12-12T04:48:59.894Z,15.75
2017-12-12T04:51:27.351Z,16.40
2017-12-12T04:53:54.843Z,15.18
2017-12-12T04:56:22.309Z,17.12
2017-12-12T04:58:50.537Z,17.75
2017-12-12T05:01:18.005Z,23.73
2017-12-12T05:03:46.260Z,17.70
2017-12-12T05:06:14.512Z,15.27
2017-12-12T05:08:42.004Z,23.33
2017-12-12T05:11:09.472Z,20.85
2017-12-12T05:13:36.932Z,15.18
2017-12-12T05:16:04.384Z,19.40
2017-12-12T05:18:32.644Z,18.87
2017-12-12T05:21:00.092Z,17.58
2017-12-12T05:23:28.339Z,20.20
2017-12-12T05:25:55.883Z,25.48
2017-12-12T05:28:23.471Z,24.75
2017-12-12T05:30:51.692Z,19.15
2017-12-12T05:33:19.912Z,21.20
2017-12-12T05:35:47.379Z,15.88
2017-12-12T05:38:14.842Z,18.05
2017-12-12T05:40:42.293Z,14.20
2017-12-12T05:43:10.548Z,17.95
2017-12-12T05:45:38.005Z,21.37
2017-12-12T05:48:06.244Z,17.48
2017-12-12T05:50:33.702Z,13.20
2017-12-12T05:53:01.933Z,13.02
2017-12-12T05:55:29.491Z,21.10
2017-12-12T05:57:57.032Z,16.02
2017-12-12T06:00:24.579Z,23.50
2017-12-12T06:02:52.028Z,22.73
2017-12-12T06:05:20.264Z,18.90
2017-12-12T06:07:47.720Z,14.30
2017-12-12T06:10:15.174Z,17.00
2017-12-12T06:12:43.398Z,11.50
2017-12-12T06:15:10.965Z,15.40
2017-12-12T06:17:38.514Z,14.80
2017-12-12T06:20:06.764Z,11.77
2017-12-12T06:22:34.229Z,23.05
2017-12-12T06:25:02.480Z,27.17
2017-12-12T06:27:30.724Z,17.42
2017-12-12T06:29:58.282Z,21.65
2017-12-12T06:32:25.821Z,20.95
2017-12-12T06:34:53.360Z,18.15
2017-12-12T06:37:20.904Z,18.98
2017-12-12T06:39:48.361Z,16.80
2017-12-12T06:42:16.583Z,13.65
2017-12-12T06:44:44.052Z,19.23
2017-12-12T06:47:12.304Z,16.35
2017-12-12T06:49:39.847Z,29.55
2017-12-12T06:52:07.307Z,17.70
2017-12-12T06:54:35.529Z,18.83
2017-12-12T06:57:03.096Z,23.85
2017-12-12T06:59:30.544Z,24.58
2017-12-12T07:01:58.804Z,15.48
2017-12-12T07:04:27.045Z,17.48
2017-12-12T07:06:54.497Z,19.45
2017-12-12T07:09:22.041Z,18.87
2017-12-12T07:11:49.497Z,16.98
2017-12-12T07:14:17.708Z,12.18
2017-12-12T07:16:45.185Z,32.92
2017-12-12T07:19:12.716Z,17.27
2017-12-12T07:21:40.168Z,16.77
2017-12-12T07:24:08.391Z,19.10
2017-12-12T07:26:35.964Z,17.87
2017-12-12T07:29:03.424Z,16.48
2017-12-12T07:31:32.029Z,17.08
2017-12-12T07:33:59.520Z,16.35
2017-12-12T07:36:27.070Z,18.70
2017-12-12T07:38:55.291Z,18.33
2017-12-12T07:41:22.771Z,22.60
2017-12-12T07:43:50.226Z,13.25
2017-12-12T07:46:18.464Z,20.90
2017-12-12T07:48:45.912Z,19.12
2017-12-12T07:51:14.140Z,16.48
2017-12-12T07:53:41.628Z,16.60
2017-12-12T07:56:09.872Z,25.10
2017-12-12T07:58:37.415Z,18.05
2017-12-12T08:01:04.953Z,14.65
2017-12-12T08:03:32.409Z,18.08
2017-12-12T08:06:00.640Z,16.37
2017-12-12T08:08:28.101Z,13.60
2017-12-12T08:10:55.556Z,11.45
2017-12-12T08:13:23.777Z,21.33
2017-12-12T08:15:51.236Z,18.87
2017-12-12T08:18:18.787Z,18.35
2017-12-12T08:20:46.332Z,21.25
2017-12-12T08:23:14.552Z,19.80
2017-12-12T08:25:42.028Z,15.48
2017-12-12T08:28:09.576Z,16.87
2017-12-12T08:30:37.037Z,20.98
2017-12-12T08:33:05.344Z,21.10
2017-12-12T08:35:32.865Z,19.05
2017-12-12T08:38:01.194Z,14.80
2017-12-12T08:40:29.420Z,20.75
2017-12-12T08:42:56.888Z,16.30
2017-12-12T08:45:24.351Z,24.08
2017-12-12T08:47:52.572Z,20.80
2017-12-12T08:50:20.029Z,14.65
2017-12-12T08:52:47.570Z,16.33
2017-12-12T08:55:15.112Z,23.25
2017-12-12T08:57:42.565Z,23.27
2017-12-12T09:00:10.813Z,15.98
2017-12-12T09:02:38.272Z,26.42
2017-12-12T09:05:06.492Z,18.00
2017-12-12T09:07:34.062Z,16.12
2017-12-12T09:10:01.522Z,16.12
2017-12-12T09:12:29.764Z,18.95
2017-12-12T09:14:57.308Z,25.67
2017-12-12T09:17:25.568Z,13.38
2017-12-12T09:19:53.829Z,22.35
2017-12-12T09:22:22.084Z,28.02
2017-12-12T09:24:49.540Z,22.10
2017-12-12T09:27:17.771Z,18.52
2017-12-12T09:29:45.998Z,18.90
2017-12-12T09:32:13.484Z,17.37
2017-12-12T09:34:41.028Z,17.80
2017-12-12T09:37:08.572Z,17.05
2017-12-12T09:39:36.035Z,19.33
2017-12-12T09:42:04.276Z,20.58
2017-12-12T09:44:32.512Z,14.13
2017-12-12T09:46:59.976Z,14.73
2017-12-12T09:49:27.521Z,16.05
2017-12-12T09:51:55.064Z,19.73
2017-12-12T09:54:22.524Z,13.02
2017-12-12T09:56:50.745Z,20.65
2017-12-12T09:59:18.217Z,16.48
2017-12-12T10:01:46.439Z,18.92
2017-12-12T10:04:13.906Z,17.73
2017-12-12T10:06:42.218Z,19.67
2017-12-12T10:09:09.679Z,21.37
2017-12-12T10:11:37.162Z,17.27
2017-12-12T10:14:05.385Z,16.75
2017-12-12T10:16:32.840Z,16.52
2017-12-12T10:19:00.297Z,19.05
2017-12-12T10:21:28.561Z,16.45
2017-12-12T10:23:56.822Z,23.80
2017-12-12T10:26:25.049Z,11.35
2017-12-12T10:28:52.620Z,20.23
2017-12-12T10:31:20.075Z,16.50
2017-12-12T10:33:48.320Z,19.40
2017-12-12T10:36:15.863Z,14.20
2017-12-12T10:38:43.324Z,20.45
2017-12-12T10:41:11.564Z,15.05
2017-12-12T10:43:39.104Z,19.75
2017-12-12T10:46:06.652Z,25.50
2017-12-12T10:48:34.188Z,26.48
2017-12-12T10:51:01.649Z,30.52
2017-12-12T10:53:29.912Z,22.13
2017-12-12T10:55:58.141Z,27.35
2017-12-12T10:58:25.616Z,20.85
2017-12-12T11:00:53.856Z,19.67
2017-12-12T11:03:21.319Z,23.00
2017-12-12T11:05:49.553Z,19.85
2017-12-12T11:08:17.099Z,23.55
2017-12-12T11:10:44.648Z,18.85
2017-12-12T11:13:12.192Z,20.90
2017-12-12T11:15:40.421Z,24.48
2017-12-12T11:18:07.897Z,26.35
2017-12-12T11:20:36.129Z,24.67
2017-12-12T11:23:03.594Z,29.40
2017-12-12T11:25:31.044Z,28.12
2017-12-12T11:27:59.304Z,30.62
2017-12-12T11:30:27.556Z,31.17
2017-12-12T11:32:55.016Z,28.67
2017-12-12T11:35:23.292Z,33.13
2017-12-12T11:37:50.800Z,29.65
2017-12-12T11:40:19.046Z,27.52
2017-12-12T11:42:46.497Z,28.40
2017-12-12T11:45:13.992Z,30.67
2017-12-12T11:47:41.440Z,29.37
2017-12-12T11:50:08.900Z,31.37
2017-12-12T11:52:36.368Z,26.02
2017-12-12T11:55:04.596Z,27.70
2017-12-12T11:57:32.047Z,27.70
2017-12-12T11:59:59.511Z,31.00
2017-12-12T12:02:26.978Z,29.98
2017-12-12T12:04:54.451Z,29.80
2017-12-12T12:07:21.904Z,28.30
2017-12-12T12:09:49.486Z,21.62
2017-12-12T12:12:16.932Z,30.80
2017-12-12T12:14:45.153Z,26.42
2017-12-12T12:17:12.621Z,30.37
2017-12-12T12:19:40.166Z,27.27
2017-12-12T12:22:07.704Z,24.65
2017-12-12T12:24:35.159Z,22.92
2017-12-12T12:27:03.397Z,28.55
2017-12-12T12:29:30.848Z,25.15
2017-12-12T12:31:58.407Z,24.05
2017-12-12T12:34:26.644Z,22.90
2017-12-12T12:36:54.101Z,21.80
2017-12-12T12:39:22.322Z,19.02
2017-12-12T12:41:49.780Z,17.62
2017-12-12T12:44:17.236Z,22.95
2017-12-12T12:46:44.780Z,25.80
2017-12-12T12:49:12.233Z,20.25
2017-12-12T12:51:40.484Z,21.85
2017-12-12T12:54:08.708Z,24.30
2017-12-12T12:56:36.157Z,21.50
2017-12-12T12:59:03.620Z,25.05
2017-12-12T13:01:31.085Z,24.37
2017-12-12T13:03:59.326Z,27.00
2017-12-12T13:06:26.872Z,27.37
2017-12-12T13:08:54.331Z,32.88
2017-12-12T13:11:22.556Z,28.55
2017-12-12T13:13:50.009Z,30.30
2017-12-12T13:16:17.490Z,28.40
2017-12-12T13:18:44.936Z,28.30
2017-12-12T13:21:12.396Z,30.40
2017-12-12T13:23:39.877Z,32.10
2017-12-12T13:26:07.336Z,32.05
2017-12-12T13:28:35.582Z,32.47
2017-12-12T13:31:03.042Z,28.48
2017-12-12T13:33:31.308Z,20.50
2017-12-12T13:35:58.832Z,33.05
2017-12-12T13:38:26.364Z,33.90
2017-12-12T13:40:53.914Z,28.58
2017-12-12T13:43:21.384Z,29.42
2017-12-12T13:45:48.900Z,32.42
2017-12-12T13:48:17.129Z,30.80
2017-12-12T13:50:44.601Z,30.15
2017-12-12T13:53:12.840Z,35.92
2017-12-12T13:55:40.409Z,35.35
2017-12-12T13:58:08.623Z,37.20
2017-12-12T14:00:36.084Z,33.92
2017-12-12T14:03:03.653Z,37.65
2017-12-12T14:05:31.112Z,33.30
2017-12-12T14:07:58.640Z,34.47
2017-12-12T14:10:26.864Z,34.70
2017-12-12T14:12:54.336Z,32.72
2017-12-12T14:15:22.593Z,29.48
2017-12-12T14:17:50.136Z,27.20
2017-12-12T14:20:17.596Z,33.30
2017-12-12T14:22:45.057Z,38.33
2017-12-12T14:25:12.568Z,34.67
2017-12-12T14:27:40.824Z,33.25
2017-12-12T14:30:09.041Z,33.38
2017-12-12T14:32:36.524Z,34.22
2017-12-12T14:35:04.743Z,34.08
2017-12-12T14:37:32.226Z,41.63
2017-12-12T14:40:00.448Z,37.30
2017-12-12T14:42:27.904Z,33.70
2017-12-12T14:44:55.468Z,41.60
2017-12-12T14:47:22.925Z,43.10
2017-12-12T14:49:51.168Z,34.55
2017-12-12T14:52:19.384Z,38.20
2017-12-12T14:54:46.847Z,30.27
2017-12-12T14:57:14.414Z,35.95
2017-12-12T14:59:41.877Z,29.33
2017-12-12T15:02:10.120Z,33.45
2017-12-12T15:04:38.353Z,34.97
2017-12-12T15:07:06.592Z,40.67
2017-12-12T15:09:34.070Z,38.08
2017-12-12T15:12:01.529Z,30.48
2017-12-12T15:14:28.988Z,37.45
2017-12-12T15:16:56.456Z,33.78
2017-12-12T15:19:23.921Z,33.22
2017-12-12T15:21:51.404Z,30.58
2017-12-12T15:24:18.864Z,32.22
2017-12-12T15:26:46.320Z,30.88
2017-12-12T15:29:13.830Z,33.30
2017-12-12T15:31:42.054Z,29.65
2017-12-12T15:34:09.504Z,31.62
2017-12-12T15:36:36.964Z,32.25
2017-12-12T15:39:04.520Z,36.40
2017-12-12T15:41:32.010Z,30.50
2017-12-12T15:43:59.476Z,32.67
2017-12-12T15:46:27.452Z,40.95
2017-12-12T15:48:54.908Z,30.55
2017-12-12T15:51:22.364Z,34.33
2017-12-12T15:56:41.655Z,33.72
2017-12-12T15:59:09.891Z,35.13
2017-12-12T16:01:37.351Z,36.63
2017-12-12T16:04:05.571Z,43.85
2017-12-12T16:06:33.046Z,35.53
2017-12-12T16:09:01.300Z,31.12
2017-12-12T16:11:28.850Z,33.78
2017-12-12T16:13:57.100Z,29.50
2017-12-12T16:16:24.645Z,35.45
2017-12-12T16:18:52.105Z,32.05
2017-12-12T16:21:20.344Z,33.25
2017-12-12T16:23:47.888Z,34.97
2017-12-12T16:26:15.433Z,29.87
2017-12-12T16:28:42.889Z,35.00
2017-12-12T16:31:10.420Z,33.55
2017-12-12T16:33:38.679Z,33.65
2017-12-12T16:36:06.932Z,29.33
2017-12-12T16:38:34.388Z,35.63
2017-12-12T16:41:02.613Z,34.97
2017-12-12T16:43:30.076Z,34.70
2017-12-12T16:45:57.535Z,34.88
2017-12-12T16:48:25.048Z,35.03
2017-12-12T16:50:52.540Z,31.65
2017-12-12T16:53:20.084Z,36.63
2017-12-12T16:55:47.544Z,35.60
2017-12-12T16:58:15.100Z,35.08
2017-12-12T17:00:42.640Z,38.40
2017-12-12T17:03:10.102Z,38.83
2017-12-12T17:05:37.664Z,39.75
2017-12-12T17:08:05.132Z,34.08
2017-12-12T17:10:32.596Z,37.75
2017-12-12T17:13:00.056Z,36.45
2017-12-12T17:15:28.305Z,41.90
2017-12-12T17:17:55.770Z,37.65
2017-12-12T17:20:23.993Z,38.42
2017-12-12T17:22:51.472Z,43.42
2017-12-12T17:25:18.943Z,38.17
2017-12-12T17:27:46.448Z,38.60
2017-12-12T17:30:14.034Z,35.92
2017-12-12T17:32:42.253Z,45.05
2017-12-12T17:35:09.716Z,36.00
2017-12-12T17:37:37.203Z,37.95
2017-12-12T17:40:04.663Z,39.20
2017-12-12T17:42:32.894Z,43.45
2017-12-12T17:45:00.368Z,36.60
2017-12-12T17:47:28.608Z,40.92
2017-12-12T17:49:56.071Z,39.75
2017-12-12T17:52:23.572Z,41.88
2017-12-12T17:54:51.847Z,42.65
2017-12-12T17:57:20.087Z,38.25
2017-12-12T17:59:48.348Z,40.20
2017-12-12T18:02:15.987Z,44.83
2017-12-12T18:04:44.956Z,40.80
2017-12-12T18:07:12.412Z,41.88
2017-12-12T18:09:39.888Z,44.53
2017-12-12T18:12:07.420Z,36.22
2017-12-12T18:14:34.940Z,40.00
2017-12-12T18:17:03.190Z,40.22
2017-12-12T18:19:30.745Z,39.38
2017-12-12T18:21:58.995Z,42.80
2017-12-12T18:24:26.457Z,37.03
2017-12-12T18:26:54.015Z,40.88
2017-12-12T18:29:21.507Z,30.02
2017-12-12T18:31:48.970Z,33.67
2017-12-12T18:34:16.422Z,36.67
2017-12-12T18:36:44.663Z,34.17
2017-12-12T18:39:12.215Z,37.08
2017-12-12T18:41:40.439Z,38.08
2017-12-12T18:44:07.916Z,36.10
2017-12-12T18:46:35.422Z,32.63
2017-12-12T18:49:02.956Z,36.53
2017-12-12T18:51:31.210Z,31.65
2017-12-12T18:53:58.680Z,36.63
2017-12-12T18:56:26.917Z,35.55
2017-12-12T18:58:55.186Z,32.45
2017-12-12T19:01:22.720Z,42.50
2017-12-12T19:03:50.961Z,40.08
2017-12-12T19:06:18.412Z,37.30
2017-12-12T19:08:45.920Z,38.88
2017-12-12T19:11:14.189Z,33.15
2017-12-12T19:13:42.445Z,34.90
2017-12-12T19:16:10.713Z,36.90
2017-12-12T19:18:38.952Z,36.97
2017-12-12T19:21:06.423Z,34.05
2017-12-12T19:23:34.651Z,38.55
2017-12-12T19:26:02.113Z,36.25
2017-12-12T19:28:30.364Z,37.72
2017-12-12T19:30:58.622Z,37.17
2017-12-12T19:33:26.089Z,38.15
2017-12-12T19:35:53.608Z,34.42
2017-12-12T19:38:21.151Z,38.40
2017-12-12T19:40:49.403Z,35.28
2017-12-12T19:43:16.867Z,37.85
2017-12-12T19:45:45.093Z,40.67
2017-12-12T19:48:12.561Z,40.17
2017-12-12T19:50:40.794Z,41.37
2017-12-12T19:53:08.355Z,48.75
2017-12-12T19:55:35.812Z,40.65
2017-12-12T19:58:04.052Z,53.85
2017-12-12T20:00:31.508Z,51.17
2017-12-12T20:02:59.796Z,47.47
2017-12-12T20:05:27.308Z,45.63
2017-12-12T20:07:54.770Z,46.35
2017-12-12T20:10:22.315Z,48.50
2017-12-12T20:12:49.772Z,49.20
2017-12-12T20:15:17.991Z,48.92
2017-12-12T20:17:45.560Z,47.88
2017-12-12T20:20:13.795Z,43.55
2017-12-12T20:22:41.359Z,44.42
2017-12-12T20:25:08.820Z,45.03
2017-12-12T20:27:37.162Z,43.13
2017-12-12T20:30:04.713Z,40.28
2017-12-12T20:32:32.945Z,49.13
2017-12-12T20:35:00.396Z,44.05
2017-12-12T20:37:27.872Z,49.33
2017-12-12T20:39:55.393Z,45.00
2017-12-12T20:42:22.922Z,45.20
2017-12-12T20:44:50.379Z,46.03
2017-12-12T20:47:17.848Z,43.95
2017-12-12T20:49:45.360Z,41.30
2017-12-12T20:52:12.912Z,40.45
2017-12-12T20:54:41.152Z,37.35
2017-12-12T20:57:08.601Z,41.72
2017-12-12T20:59:36.064Z,45.42
2017-12-12T21:02:04.359Z,37.38
2017-12-12T21:04:31.825Z,38.70
2017-12-12T21:07:04.924Z,38.92
2017-12-12T21:09:32.391Z,45.00
2017-12-12T21:11:59.855Z,45.28
2017-12-12T21:14:28.077Z,42.85
2017-12-12T21:16:55.536Z,42.83
2017-12-12T21:19:23.115Z,38.90
2017-12-12T21:21:50.586Z,37.55
2017-12-12T21:24:18.073Z,41.88
2017-12-12T21:26:45.524Z,51.17
2017-12-12T21:29:13.877Z,52.92
2017-12-12T21:31:41.420Z,44.90
2017-12-12T21:34:09.644Z,47.47
2017-12-12T21:36:37.120Z,46.03
2017-12-12T21:39:04.663Z,44.42
2017-12-12T21:41:32.129Z,48.22
2017-12-12T21:44:00.361Z,41.95
2017-12-12T21:46:27.912Z,45.45
2017-12-12T21:48:55.365Z,41.22
2017-12-12T21:51:23.600Z,47.08
2017-12-12T21:53:51.152Z,41.83
2017-12-12T21:56:18.613Z,45.75
2017-12-12T21:58:46.876Z,45.22
2017-12-12T22:01:15.088Z,44.10
2017-12-12T22:03:42.558Z,45.53
2017-12-12T22:06:10.772Z,51.47
2017-12-12T22:08:38.243Z,43.22
2017-12-12T22:11:05.784Z,47.13
2017-12-12T22:13:34.013Z,55.50
2017-12-12T22:16:01.493Z,48.15
2017-12-12T22:18:29.724Z,52.75
2017-12-12T22:20:57.284Z,55.92
2017-12-12T22:23:24.764Z,46.95
2017-12-12T22:25:52.220Z,51.25
2017-12-12T22:28:19.722Z,51.22
2017-12-12T22:30:47.960Z,49.67
2017-12-12T22:33:15.510Z,51.08
2017-12-12T22:35:42.966Z,59.95
2017-12-12T22:38:11.198Z,48.53
2017-12-12T22:40:38.663Z,56.25
2017-12-12T22:43:06.204Z,57.92
2017-12-12T22:45:33.656Z,60.97
2017-12-12T22:48:01.900Z,65.47
2017-12-12T22:50:30.149Z,61.15
2017-12-12T22:52:57.609Z,62.22
2017-12-12T22:55:25.840Z,65.20
2017-12-12T23:00:49.495Z,57.70
2017-12-12T23:03:17.182Z,53.83
2017-12-12T23:05:44.662Z,59.80
2017-12-12T23:08:12.140Z,62.97
2017-12-12T23:10:39.602Z,55.22
2017-12-12T23:13:07.939Z,63.95
2017-12-12T23:15:35.396Z,50.60
2017-12-12T23:18:03.624Z,43.72
2017-12-12T23:20:31.118Z,54.15
2017-12-12T23:22:58.642Z,49.65
2017-12-12T23:25:26.892Z,50.12
2017-12-12T23:27:54.358Z,44.97
2017-12-12T23:30:21.837Z,46.00
2017-12-12T23:32:49.317Z,46.97
2017-12-12T23:35:17.577Z,40.20
2017-12-12T23:37:45.035Z,50.12
2017-12-12T23:40:13.260Z,40.33
2017-12-12T23:42:40.831Z,43.08
2017-12-12T23:45:08.394Z,43.80
2017-12-12T23:47:35.844Z,41.60
2017-12-12T23:50:03.349Z,34.22
2017-12-12T23:52:30.808Z,35.47
2017-12-12T23:54:59.054Z,34.72
2017-12-12T23:57:26.596Z,39.08
2017-12-12T23:59:54.154Z,37.58
